CA-0385 weather

CLOSED Trinity Bay Airport
Quebec, Canada

Public forecast

Using degrees Celsius for public forecast. Weather courtesy of forecast.io.

METAR (pilot weather report)

Closest report is Baie Comeau Airport, 38.3 nm (70.9 km) WSW. Retrieved 2019/05/19 11:00 UTC (52 minutes ago):

CYBC 191100Z AUTO 07009KT 9SM CLR 08/01 A3011 RMK SLP200

TAF (pilot weather forecast)

Closest forecast is Baie Comeau Airport, 38.3 nm (70.9 km) WSW. Retrieved 2019/05/19 08:00 UTC (4 hours ago):

TAF CYBC 190738Z 1908/1920 VRB03KT P6SM OVC080 BECMG 1910/1912 08010KT FM191200 08010KT P6SM FEW080 FM191600 08012KT P6SM BKN030 BKN080 RMK FCST BASED ON AUTO OBS. NXT FCST BY 191400Z